Terminal Aerodrome Forecast
Issued by NWS

Home | Current Version | Previous Version | Text Only | Print | Product List | Glossary On
Versions: 1 2 3 4 5 6 7 8 9 10 11 12 13 14 15 16 17 18 19
838
FTUS43 KDLH 181728
TAFBRD
TAF
KBRD 181728Z 1818/1918 36007KT P6SM VCTS SCT025CB BKN100
      TEMPO 1818/1820 4SM TSRA BKN025CB
     FM182000 34008KT P6SM VCSH SCT040 BKN150
     FM190000 VRB03KT P6SM SCT100
      TEMPO 1909/1912 3SM BR SCT003
     FM191500 16007KT P6SM SKC=

USA.gov is the U.S. government's official web portal to all federal, state and local government web resources and services.